sensor_id;sensor_type;location;lat;lon;timestamp;P1;durP1;ratioP1;P2;durP2;ratioP2
791;SDS011;379;49.022;12.148;2023-10-13T00:00:29;4.80;;;3.30;;
791;SDS011;379;49.022;12.148;2023-10-13T00:03:01;5.47;;;2.90;;
791;SDS011;379;49.022;12.148;2023-10-13T00:05:28;6.23;;;3.77;;
791;SDS011;379;49.022;12.148;2023-10-13T00:07:56;3.30;;;3.00;;
791;SDS011;379;49.022;12.148;2023-10-13T00:10:25;4.17;;;3.43;;
791;SDS011;379;49.022;12.148;2023-10-13T00:12:53;7.77;;;3.93;;
791;SDS011;379;49.022;12.148;2023-10-13T00:15:31;4.43;;;4.03;;
791;SDS011;379;49.022;12.148;2023-10-13T00:18:03;3.07;;;2.77;;
791;SDS011;379;49.022;12.148;2023-10-13T00:20:37;6.37;;;4.13;;
791;SDS011;379;49.022;12.148;2023-10-13T00:23:04;6.17;;;2.90;;
791;SDS011;379;49.022;12.148;2023-10-13T00:25:32;7.83;;;4.50;;
791;SDS011;379;49.022;12.148;2023-10-13T00:28:08;5.50;;;3.47;;
791;SDS011;379;49.022;12.148;2023-10-13T00:30:36;5.27;;;3.77;;
791;SDS011;379;49.022;12.148;2023-10-13T00:33:03;5.73;;;3.97;;
791;SDS011;379;49.022;12.148;2023-10-13T00:35:30;5.20;;;2.93;;
791;SDS011;379;49.022;12.148;2023-10-13T00:38:02;4.17;;;3.77;;
791;SDS011;379;49.022;12.148;2023-10-13T00:40:38;2.13;;;1.93;;
791;SDS011;379;49.022;12.148;2023-10-13T00:43:09;5.20;;;2.53;;
791;SDS011;379;49.022;12.148;2023-10-13T00:45:55;6.97;;;3.53;;
791;SDS011;379;49.022;12.148;2023-10-13T00:48:32;5.40;;;3.90;;
791;SDS011;379;49.022;12.148;2023-10-13T00:51:00;3.80;;;3.17;;
791;SDS011;379;49.022;12.148;2023-10-13T00:53:32;7.53;;;2.90;;
791;SDS011;379;49.022;12.148;2023-10-13T00:55:58;5.80;;;3.63;;
791;SDS011;379;49.022;12.148;2023-10-13T00:58:31;5.93;;;3.47;;
791;SDS011;379;49.022;12.148;2023-10-13T01:00:59;15.93;;;4.43;;
791;SDS011;379;49.022;12.148;2023-10-13T01:03:42;4.47;;;3.13;;
791;SDS011;379;49.022;12.148;2023-10-13T01:06:10;5.13;;;3.17;;
791;SDS011;379;49.022;12.148;2023-10-13T01:08:37;4.87;;;3.00;;
791;SDS011;379;49.022;12.148;2023-10-13T01:11:03;4.43;;;3.20;;
791;SDS011;379;49.022;12.148;2023-10-13T01:13:32;7.37;;;3.43;;
791;SDS011;379;49.022;12.148;2023-10-13T01:16:02;5.73;;;2.87;;
791;SDS011;379;49.022;12.148;2023-10-13T01:18:32;4.30;;;3.10;;
791;SDS011;379;49.022;12.148;2023-10-13T01:21:04;4.30;;;2.93;;
791;SDS011;379;49.022;12.148;2023-10-13T01:23:33;10.90;;;4.03;;
791;SDS011;379;49.022;12.148;2023-10-13T01:26:03;4.80;;;3.00;;
791;SDS011;379;49.022;12.148;2023-10-13T01:28:31;5.13;;;3.07;;
791;SDS011;379;49.022;12.148;2023-10-13T01:31:09;7.37;;;4.20;;
791;SDS011;379;49.022;12.148;2023-10-13T01:33:38;2.87;;;2.47;;
791;SDS011;379;49.022;12.148;2023-10-13T01:36:04;4.93;;;4.53;;
791;SDS011;379;49.022;12.148;2023-10-13T01:38:35;4.17;;;3.43;;
791;SDS011;379;49.022;12.148;2023-10-13T01:41:04;3.97;;;2.60;;
791;SDS011;379;49.022;12.148;2023-10-13T01:43:33;4.33;;;2.77;;
791;SDS011;379;49.022;12.148;2023-10-13T01:46:00;6.47;;;4.27;;
791;SDS011;379;49.022;12.148;2023-10-13T01:48:28;5.67;;;3.53;;
791;SDS011;379;49.022;12.148;2023-10-13T01:50:57;4.67;;;2.43;;
791;SDS011;379;49.022;12.148;2023-10-13T01:53:25;6.80;;;2.97;;
791;SDS011;379;49.022;12.148;2023-10-13T01:55:55;3.27;;;3.07;;
791;SDS011;379;49.022;12.148;2023-10-13T01:58:23;3.57;;;2.57;;
791;SDS011;379;49.022;12.148;2023-10-13T02:00:51;3.60;;;3.30;;
791;SDS011;379;49.022;12.148;2023-10-13T02:03:18;6.50;;;2.53;;
791;SDS011;379;49.022;12.148;2023-10-13T02:05:47;5.93;;;2.70;;
791;SDS011;379;49.022;12.148;2023-10-13T02:08:19;3.87;;;2.53;;
791;SDS011;379;49.022;12.148;2023-10-13T02:10:48;8.20;;;4.10;;
791;SDS011;379;49.022;12.148;2023-10-13T02:13:16;4.00;;;3.60;;
791;SDS011;379;49.022;12.148;2023-10-13T02:15:44;5.43;;;3.37;;
791;SDS011;379;49.022;12.148;2023-10-13T02:18:13;3.73;;;3.40;;
791;SDS011;379;49.022;12.148;2023-10-13T02:20:45;7.13;;;3.30;;
791;SDS011;379;49.022;12.148;2023-10-13T02:23:19;3.87;;;2.23;;
791;SDS011;379;49.022;12.148;2023-10-13T02:25:45;4.00;;;2.73;;
791;SDS011;379;49.022;12.148;2023-10-13T02:28:12;4.27;;;3.67;;
791;SDS011;379;49.022;12.148;2023-10-13T02:30:40;6.17;;;4.80;;
791;SDS011;379;49.022;12.148;2023-10-13T02:33:11;5.40;;;3.53;;
791;SDS011;379;49.022;12.148;2023-10-13T02:35:37;5.50;;;3.00;;
791;SDS011;379;49.022;12.148;2023-10-13T02:38:08;7.60;;;5.30;;
791;SDS011;379;49.022;12.148;2023-10-13T02:40:38;2.53;;;2.30;;
791;SDS011;379;49.022;12.148;2023-10-13T02:43:04;4.10;;;3.30;;
791;SDS011;379;49.022;12.148;2023-10-13T02:45:31;5.13;;;3.47;;
791;SDS011;379;49.022;12.148;2023-10-13T02:48:02;4.10;;;3.17;;
791;SDS011;379;49.022;12.148;2023-10-13T02:50:39;2.80;;;2.47;;
791;SDS011;379;49.022;12.148;2023-10-13T02:53:09;4.23;;;3.43;;
791;SDS011;379;49.022;12.148;2023-10-13T02:55:37;5.57;;;3.07;;
791;SDS011;379;49.022;12.148;2023-10-13T02:58:05;4.70;;;3.53;;
791;SDS011;379;49.022;12.148;2023-10-13T03:00:33;5.20;;;4.17;;
791;SDS011;379;49.022;12.148;2023-10-13T03:03:00;4.27;;;3.00;;
791;SDS011;379;49.022;12.148;2023-10-13T03:05:27;3.00;;;2.50;;
791;SDS011;379;49.022;12.148;2023-10-13T03:07:56;5.33;;;3.63;;
791;SDS011;379;49.022;12.148;2023-10-13T03:10:23;5.53;;;3.37;;
791;SDS011;379;49.022;12.148;2023-10-13T03:12:54;7.17;;;3.30;;
791;SDS011;379;49.022;12.148;2023-10-13T03:15:20;4.47;;;2.37;;
791;SDS011;379;49.022;12.148;2023-10-13T03:17:54;4.63;;;3.43;;
791;SDS011;379;49.022;12.148;2023-10-13T03:20:23;2.80;;;2.50;;
791;SDS011;379;49.022;12.148;2023-10-13T03:22:58;5.90;;;2.53;;
791;SDS011;379;49.022;12.148;2023-10-13T03:25:24;2.60;;;2.27;;
791;SDS011;379;49.022;12.148;2023-10-13T03:28:02;5.67;;;2.97;;
791;SDS011;379;49.022;12.148;2023-10-13T03:30:30;5.07;;;4.10;;
791;SDS011;379;49.022;12.148;2023-10-13T03:33:01;6.83;;;4.27;;
791;SDS011;379;49.022;12.148;2023-10-13T03:35:31;6.17;;;4.23;;
791;SDS011;379;49.022;12.148;2023-10-13T03:38:04;4.77;;;3.50;;
791;SDS011;379;49.022;12.148;2023-10-13T03:40:39;3.80;;;3.20;;
791;SDS011;379;49.022;12.148;2023-10-13T03:43:06;16.70;;;3.10;;
791;SDS011;379;49.022;12.148;2023-10-13T03:45:35;4.50;;;2.83;;
791;SDS011;379;49.022;12.148;2023-10-13T03:48:04;3.23;;;2.70;;
791;SDS011;379;49.022;12.148;2023-10-13T03:50:35;4.77;;;3.90;;
791;SDS011;379;49.022;12.148;2023-10-13T03:53:03;5.33;;;3.93;;
791;SDS011;379;49.022;12.148;2023-10-13T03:55:33;3.83;;;2.70;;
791;SDS011;379;49.022;12.148;2023-10-13T03:58:00;8.73;;;3.63;;
791;SDS011;379;49.022;12.148;2023-10-13T04:00:28;3.47;;;3.17;;
791;SDS011;379;49.022;12.148;2023-10-13T04:02:56;5.07;;;2.70;;
791;SDS011;379;49.022;12.148;2023-10-13T04:05:33;7.50;;;3.37;;
791;SDS011;379;49.022;12.148;2023-10-13T04:08:11;5.43;;;4.53;;
791;SDS011;379;49.022;12.148;2023-10-13T04:10:56;3.57;;;2.57;;
791;SDS011;379;49.022;12.148;2023-10-13T04:13:41;5.60;;;2.90;;
791;SDS011;379;49.022;12.148;2023-10-13T04:16:25;3.63;;;2.67;;
791;SDS011;379;49.022;12.148;2023-10-13T04:19:02;2.37;;;2.13;;
791;SDS011;379;49.022;12.148;2023-10-13T04:21:45;5.13;;;3.83;;
791;SDS011;379;49.022;12.148;2023-10-13T04:24:25;4.67;;;3.50;;
791;SDS011;379;49.022;12.148;2023-10-13T04:27:18;8.47;;;7.57;;
791;SDS011;379;49.022;12.148;2023-10-13T04:30:03;5.10;;;4.33;;
791;SDS011;379;49.022;12.148;2023-10-13T04:32:36;4.50;;;3.53;;
791;SDS011;379;49.022;12.148;2023-10-13T04:35:07;4.20;;;3.37;;
791;SDS011;379;49.022;12.148;2023-10-13T04:37:43;6.00;;;3.43;;
791;SDS011;379;49.022;12.148;2023-10-13T04:40:27;6.30;;;4.23;;
791;SDS011;379;49.022;12.148;2023-10-13T04:43:00;4.93;;;3.47;;
791;SDS011;379;49.022;12.148;2023-10-13T04:45:50;4.13;;;3.47;;
791;SDS011;379;49.022;12.148;2023-10-13T04:48:19;6.37;;;2.50;;
791;SDS011;379;49.022;12.148;2023-10-13T04:51:01;4.43;;;3.53;;
791;SDS011;379;49.022;12.148;2023-10-13T04:53:45;2.63;;;2.40;;
791;SDS011;379;49.022;12.148;2023-10-13T04:56:30;2.57;;;2.37;;
791;SDS011;379;49.022;12.148;2023-10-13T04:59:15;10.37;;;3.10;;
791;SDS011;379;49.022;12.148;2023-10-13T05:02:00;3.93;;;2.70;;
791;SDS011;379;49.022;12.148;2023-10-13T05:04:41;9.27;;;2.53;;
791;SDS011;379;49.022;12.148;2023-10-13T05:07:21;3.67;;;2.77;;
791;SDS011;379;49.022;12.148;2023-10-13T05:10:06;4.67;;;4.27;;
791;SDS011;379;49.022;12.148;2023-10-13T05:12:51;5.93;;;4.47;;
791;SDS011;379;49.022;12.148;2023-10-13T05:15:42;5.20;;;3.10;;
791;SDS011;379;49.022;12.148;2023-10-13T05:18:26;4.90;;;4.20;;
791;SDS011;379;49.022;12.148;2023-10-13T05:21:11;9.50;;;4.10;;
791;SDS011;379;49.022;12.148;2023-10-13T05:23:55;7.80;;;3.07;;
791;SDS011;379;49.022;12.148;2023-10-13T05:26:39;3.63;;;3.30;;
791;SDS011;379;49.022;12.148;2023-10-13T05:29:24;9.13;;;3.17;;
791;SDS011;379;49.022;12.148;2023-10-13T05:32:08;2.80;;;2.40;;
791;SDS011;379;49.022;12.148;2023-10-13T05:34:52;4.83;;;3.40;;
791;SDS011;379;49.022;12.148;2023-10-13T05:37:36;6.60;;;3.10;;
791;SDS011;379;49.022;12.148;2023-10-13T05:40:20;9.10;;;3.47;;
791;SDS011;379;49.022;12.148;2023-10-13T05:43:05;2.60;;;2.00;;
791;SDS011;379;49.022;12.148;2023-10-13T05:45:52;3.87;;;3.10;;
791;SDS011;379;49.022;12.148;2023-10-13T05:48:37;8.33;;;6.03;;
791;SDS011;379;49.022;12.148;2023-10-13T05:51:38;2.67;;;1.90;;
791;SDS011;379;49.022;12.148;2023-10-13T05:54:12;2.80;;;2.37;;
791;SDS011;379;49.022;12.148;2023-10-13T05:56:57;5.40;;;4.47;;
791;SDS011;379;49.022;12.148;2023-10-13T05:59:38;5.23;;;3.20;;
791;SDS011;379;49.022;12.148;2023-10-13T06:02:24;6.00;;;4.37;;
791;SDS011;379;49.022;12.148;2023-10-13T06:05:09;5.80;;;2.83;;
791;SDS011;379;49.022;12.148;2023-10-13T06:07:54;8.73;;;5.20;;
791;SDS011;379;49.022;12.148;2023-10-13T06:10:39;5.13;;;3.70;;
791;SDS011;379;49.022;12.148;2023-10-13T06:13:24;4.30;;;3.40;;
791;SDS011;379;49.022;12.148;2023-10-13T06:16:08;3.77;;;3.40;;
791;SDS011;379;49.022;12.148;2023-10-13T06:18:55;4.37;;;2.87;;
791;SDS011;379;49.022;12.148;2023-10-13T06:21:39;4.10;;;3.47;;
791;SDS011;379;49.022;12.148;2023-10-13T06:24:24;4.60;;;3.17;;
791;SDS011;379;49.022;12.148;2023-10-13T06:27:08;3.97;;;2.90;;
791;SDS011;379;49.022;12.148;2023-10-13T06:29:53;12.07;;;3.33;;
791;SDS011;379;49.022;12.148;2023-10-13T06:32:19;5.97;;;5.37;;
791;SDS011;379;49.022;12.148;2023-10-13T06:34:52;5.30;;;4.50;;
791;SDS011;379;49.022;12.148;2023-10-13T06:37:23;4.83;;;2.83;;
791;SDS011;379;49.022;12.148;2023-10-13T06:39:51;6.40;;;3.40;;
791;SDS011;379;49.022;12.148;2023-10-13T06:42:21;5.07;;;3.40;;
791;SDS011;379;49.022;12.148;2023-10-13T06:44:52;9.20;;;6.30;;
791;SDS011;379;49.022;12.148;2023-10-13T06:47:19;4.70;;;3.30;;
791;SDS011;379;49.022;12.148;2023-10-13T06:49:46;5.03;;;4.17;;
791;SDS011;379;49.022;12.148;2023-10-13T06:52:17;6.50;;;4.53;;
791;SDS011;379;49.022;12.148;2023-10-13T06:54:44;7.23;;;3.67;;
791;SDS011;379;49.022;12.148;2023-10-13T06:57:11;7.50;;;3.80;;
791;SDS011;379;49.022;12.148;2023-10-13T06:59:40;6.10;;;3.60;;
791;SDS011;379;49.022;12.148;2023-10-13T07:02:07;4.90;;;3.57;;
791;SDS011;379;49.022;12.148;2023-10-13T07:04:40;5.00;;;4.47;;
791;SDS011;379;49.022;12.148;2023-10-13T07:07:07;5.97;;;4.10;;
791;SDS011;379;49.022;12.148;2023-10-13T07:09:36;4.03;;;3.43;;
791;SDS011;379;49.022;12.148;2023-10-13T07:12:06;3.70;;;2.90;;
791;SDS011;379;49.022;12.148;2023-10-13T07:14:41;4.40;;;3.50;;
791;SDS011;379;49.022;12.148;2023-10-13T07:17:16;9.43;;;4.20;;
791;SDS011;379;49.022;12.148;2023-10-13T07:19:49;5.60;;;3.87;;
791;SDS011;379;49.022;12.148;2023-10-13T07:22:19;6.37;;;5.60;;
791;SDS011;379;49.022;12.148;2023-10-13T07:24:48;5.73;;;4.30;;
791;SDS011;379;49.022;12.148;2023-10-13T07:27:17;4.37;;;4.00;;
791;SDS011;379;49.022;12.148;2023-10-13T07:29:49;5.20;;;2.73;;
791;SDS011;379;49.022;12.148;2023-10-13T07:32:21;5.37;;;3.73;;
791;SDS011;379;49.022;12.148;2023-10-13T07:34:52;14.40;;;5.60;;
791;SDS011;379;49.022;12.148;2023-10-13T07:37:21;11.37;;;4.77;;
791;SDS011;379;49.022;12.148;2023-10-13T07:39:54;5.90;;;3.30;;
791;SDS011;379;49.022;12.148;2023-10-13T07:42:23;9.40;;;4.27;;
791;SDS011;379;49.022;12.148;2023-10-13T07:44:55;17.53;;;6.43;;
791;SDS011;379;49.022;12.148;2023-10-13T07:47:24;6.27;;;4.07;;
791;SDS011;379;49.022;12.148;2023-10-13T07:49:53;6.10;;;4.60;;
791;SDS011;379;49.022;12.148;2023-10-13T07:52:22;5.43;;;3.87;;
791;SDS011;379;49.022;12.148;2023-10-13T07:54:53;5.40;;;4.87;;
791;SDS011;379;49.022;12.148;2023-10-13T07:57:36;7.47;;;4.70;;
791;SDS011;379;49.022;12.148;2023-10-13T08:00:18;5.80;;;4.33;;
791;SDS011;379;49.022;12.148;2023-10-13T08:02:55;8.33;;;5.17;;
791;SDS011;379;49.022;12.148;2023-10-13T08:05:32;6.27;;;4.13;;
791;SDS011;379;49.022;12.148;2023-10-13T08:08:21;12.20;;;4.93;;
791;SDS011;379;49.022;12.148;2023-10-13T08:10:52;8.37;;;5.00;;
791;SDS011;379;49.022;12.148;2023-10-13T08:13:21;7.67;;;3.73;;
791;SDS011;379;49.022;12.148;2023-10-13T08:15:48;6.07;;;5.13;;
791;SDS011;379;49.022;12.148;2023-10-13T08:18:17;5.20;;;3.80;;
791;SDS011;379;49.022;12.148;2023-10-13T08:20:55;5.80;;;3.50;;
791;SDS011;379;49.022;12.148;2023-10-13T08:23:27;6.93;;;3.87;;
791;SDS011;379;49.022;12.148;2023-10-13T08:26:22;5.57;;;3.93;;
791;SDS011;379;49.022;12.148;2023-10-13T08:29:06;7.20;;;4.60;;
791;SDS011;379;49.022;12.148;2023-10-13T08:31:47;7.20;;;5.43;;
791;SDS011;379;49.022;12.148;2023-10-13T08:34:36;5.23;;;3.63;;
791;SDS011;379;49.022;12.148;2023-10-13T08:37:24;7.07;;;4.50;;
791;SDS011;379;49.022;12.148;2023-10-13T08:39:54;6.30;;;3.67;;
791;SDS011;379;49.022;12.148;2023-10-13T08:42:46;5.47;;;4.20;;
791;SDS011;379;49.022;12.148;2023-10-13T08:45:35;6.17;;;4.47;;
791;SDS011;379;49.022;12.148;2023-10-13T08:48:23;4.10;;;3.13;;
791;SDS011;379;49.022;12.148;2023-10-13T08:51:00;8.77;;;3.03;;
791;SDS011;379;49.022;12.148;2023-10-13T08:53:37;12.83;;;3.47;;
791;SDS011;379;49.022;12.148;2023-10-13T08:56:12;6.07;;;2.63;;
791;SDS011;379;49.022;12.148;2023-10-13T08:58:45;3.13;;;2.93;;
791;SDS011;379;49.022;12.148;2023-10-13T09:01:36;5.07;;;4.13;;
791;SDS011;379;49.022;12.148;2023-10-13T09:04:11;7.10;;;2.60;;
791;SDS011;379;49.022;12.148;2023-10-13T09:06:46;5.67;;;3.20;;
791;SDS011;379;49.022;12.148;2023-10-13T09:09:25;6.47;;;3.37;;
791;SDS011;379;49.022;12.148;2023-10-13T09:11:53;3.87;;;2.80;;
791;SDS011;379;49.022;12.148;2023-10-13T09:14:34;8.37;;;3.67;;
791;SDS011;379;49.022;12.148;2023-10-13T09:17:03;2.47;;;2.10;;
791;SDS011;379;49.022;12.148;2023-10-13T09:19:46;2.60;;;2.40;;
791;SDS011;379;49.022;12.148;2023-10-13T09:22:19;6.90;;;2.30;;
791;SDS011;379;49.022;12.148;2023-10-13T09:24:58;4.27;;;2.60;;
791;SDS011;379;49.022;12.148;2023-10-13T09:27:24;8.23;;;2.70;;
791;SDS011;379;49.022;12.148;2023-10-13T09:29:57;3.17;;;2.60;;
791;SDS011;379;49.022;12.148;2023-10-13T09:32:35;2.97;;;2.67;;
791;SDS011;379;49.022;12.148;2023-10-13T09:35:10;2.60;;;1.67;;
791;SDS011;379;49.022;12.148;2023-10-13T09:37:41;3.77;;;2.67;;
791;SDS011;379;49.022;12.148;2023-10-13T09:40:11;13.77;;;3.50;;
791;SDS011;379;49.022;12.148;2023-10-13T09:42:50;3.30;;;1.83;;
791;SDS011;379;49.022;12.148;2023-10-13T09:45:18;3.60;;;2.20;;
791;SDS011;379;49.022;12.148;2023-10-13T09:47:50;2.23;;;1.40;;
791;SDS011;379;49.022;12.148;2023-10-13T09:50:19;4.10;;;2.17;;
791;SDS011;379;49.022;12.148;2023-10-13T09:52:49;3.40;;;2.00;;
791;SDS011;379;49.022;12.148;2023-10-13T09:55:19;2.97;;;2.07;;
791;SDS011;379;49.022;12.148;2023-10-13T09:57:58;2.73;;;2.20;;
791;SDS011;379;49.022;12.148;2023-10-13T10:00:40;2.40;;;2.13;;
791;SDS011;379;49.022;12.148;2023-10-13T10:03:15;2.10;;;1.77;;
791;SDS011;379;49.022;12.148;2023-10-13T10:05:55;4.07;;;1.77;;
791;SDS011;379;49.022;12.148;2023-10-13T10:08:28;1.70;;;1.60;;
791;SDS011;379;49.022;12.148;2023-10-13T10:11:07;2.70;;;2.17;;
791;SDS011;379;49.022;12.148;2023-10-13T10:13:44;4.53;;;1.60;;
791;SDS011;379;49.022;12.148;2023-10-13T10:16:26;3.03;;;1.90;;
791;SDS011;379;49.022;12.148;2023-10-13T10:19:03;2.30;;;1.83;;
791;SDS011;379;49.022;12.148;2023-10-13T10:21:33;3.93;;;2.53;;
791;SDS011;379;49.022;12.148;2023-10-13T10:24:00;3.50;;;2.40;;
791;SDS011;379;49.022;12.148;2023-10-13T10:26:30;1.77;;;1.50;;
791;SDS011;379;49.022;12.148;2023-10-13T10:28:57;3.20;;;2.20;;
791;SDS011;379;49.022;12.148;2023-10-13T10:31:32;2.30;;;1.90;;
791;SDS011;379;49.022;12.148;2023-10-13T10:34:10;2.40;;;2.07;;
791;SDS011;379;49.022;12.148;2023-10-13T10:36:38;5.47;;;1.70;;
791;SDS011;379;49.022;12.148;2023-10-13T10:39:08;1.07;;;0.97;;
791;SDS011;379;49.022;12.148;2023-10-13T10:41:37;2.50;;;1.60;;
791;SDS011;379;49.022;12.148;2023-10-13T10:44:10;6.53;;;1.97;;
791;SDS011;379;49.022;12.148;2023-10-13T10:46:50;1.53;;;1.43;;
791;SDS011;379;49.022;12.148;2023-10-13T10:49:23;5.10;;;1.50;;
791;SDS011;379;49.022;12.148;2023-10-13T10:51:57;12.33;;;1.83;;
791;SDS011;379;49.022;12.148;2023-10-13T10:54:29;2.80;;;2.10;;
791;SDS011;379;49.022;12.148;2023-10-13T10:56:58;2.43;;;2.17;;
791;SDS011;379;49.022;12.148;2023-10-13T10:59:36;2.70;;;1.63;;
791;SDS011;379;49.022;12.148;2023-10-13T11:02:05;1.50;;;1.17;;
791;SDS011;379;49.022;12.148;2023-10-13T11:04:34;3.17;;;1.20;;
791;SDS011;379;49.022;12.148;2023-10-13T11:07:05;1.80;;;1.43;;
791;SDS011;379;49.022;12.148;2023-10-13T11:09:32;1.97;;;1.77;;
791;SDS011;379;49.022;12.148;2023-10-13T11:12:09;3.37;;;1.70;;
791;SDS011;379;49.022;12.148;2023-10-13T11:14:59;1.27;;;1.07;;
791;SDS011;379;49.022;12.148;2023-10-13T11:17:41;2.10;;;1.80;;
791;SDS011;379;49.022;12.148;2023-10-13T11:20:08;10.17;;;2.10;;
791;SDS011;379;49.022;12.148;2023-10-13T11:22:41;1.97;;;1.60;;
791;SDS011;379;49.022;12.148;2023-10-13T11:25:19;4.90;;;1.80;;
791;SDS011;379;49.022;12.148;2023-10-13T11:27:48;5.47;;;1.70;;
791;SDS011;379;49.022;12.148;2023-10-13T11:30:25;1.73;;;1.33;;
791;SDS011;379;49.022;12.148;2023-10-13T11:33:07;2.33;;;1.57;;
791;SDS011;379;49.022;12.148;2023-10-13T11:35:35;12.43;;;1.77;;
791;SDS011;379;49.022;12.148;2023-10-13T11:38:20;3.00;;;1.57;;
791;SDS011;379;49.022;12.148;2023-10-13T11:40:52;1.40;;;1.30;;
791;SDS011;379;49.022;12.148;2023-10-13T11:43:38;2.13;;;1.93;;
791;SDS011;379;49.022;12.148;2023-10-13T11:46:25;1.53;;;1.33;;
791;SDS011;379;49.022;12.148;2023-10-13T11:49:22;2.17;;;1.30;;
791;SDS011;379;49.022;12.148;2023-10-13T11:51:59;1.63;;;1.00;;
791;SDS011;379;49.022;12.148;2023-10-13T11:54:41;1.90;;;1.20;;
791;SDS011;379;49.022;12.148;2023-10-13T11:57:08;2.13;;;1.47;;
791;SDS011;379;49.022;12.148;2023-10-13T11:59:35;2.57;;;1.90;;
791;SDS011;379;49.022;12.148;2023-10-13T12:02:09;3.87;;;1.80;;
791;SDS011;379;49.022;12.148;2023-10-13T12:04:57;3.43;;;1.57;;
791;SDS011;379;49.022;12.148;2023-10-13T12:07:24;1.77;;;1.63;;
791;SDS011;379;49.022;12.148;2023-10-13T12:10:05;4.63;;;1.77;;
791;SDS011;379;49.022;12.148;2023-10-13T12:12:40;4.60;;;1.87;;
791;SDS011;379;49.022;12.148;2023-10-13T12:15:08;2.13;;;1.67;;
791;SDS011;379;49.022;12.148;2023-10-13T12:17:39;8.03;;;2.07;;
791;SDS011;379;49.022;12.148;2023-10-13T12:20:11;13.60;;;1.90;;
791;SDS011;379;49.022;12.148;2023-10-13T12:22:43;3.73;;;1.43;;
791;SDS011;379;49.022;12.148;2023-10-13T12:25:20;5.60;;;2.47;;
791;SDS011;379;49.022;12.148;2023-10-13T12:27:59;2.00;;;1.80;;
791;SDS011;379;49.022;12.148;2023-10-13T12:30:38;10.17;;;2.20;;
791;SDS011;379;49.022;12.148;2023-10-13T12:33:14;1.83;;;1.70;;
791;SDS011;379;49.022;12.148;2023-10-13T12:35:50;2.00;;;1.80;;
791;SDS011;379;49.022;12.148;2023-10-13T12:38:31;1.83;;;1.40;;
791;SDS011;379;49.022;12.148;2023-10-13T12:41:22;6.50;;;3.13;;
791;SDS011;379;49.022;12.148;2023-10-13T12:44:06;8.60;;;2.37;;
791;SDS011;379;49.022;12.148;2023-10-13T12:46:50;3.40;;;1.80;;
791;SDS011;379;49.022;12.148;2023-10-13T12:49:35;3.00;;;1.50;;
791;SDS011;379;49.022;12.148;2023-10-13T12:52:18;7.80;;;2.30;;
791;SDS011;379;49.022;12.148;2023-10-13T12:54:45;2.70;;;2.07;;
791;SDS011;379;49.022;12.148;2023-10-13T12:57:23;9.80;;;3.00;;
791;SDS011;379;49.022;12.148;2023-10-13T12:59:51;4.53;;;2.07;;
791;SDS011;379;49.022;12.148;2023-10-13T13:02:19;6.73;;;2.10;;
791;SDS011;379;49.022;12.148;2023-10-13T13:04:45;3.53;;;3.23;;
791;SDS011;379;49.022;12.148;2023-10-13T13:07:16;6.03;;;1.83;;
791;SDS011;379;49.022;12.148;2023-10-13T13:09:44;3.63;;;2.07;;
791;SDS011;379;49.022;12.148;2023-10-13T13:12:11;4.57;;;1.80;;
791;SDS011;379;49.022;12.148;2023-10-13T13:14:38;3.73;;;1.87;;
791;SDS011;379;49.022;12.148;2023-10-13T13:17:10;3.83;;;2.00;;
791;SDS011;379;49.022;12.148;2023-10-13T13:19:37;2.10;;;1.93;;
791;SDS011;379;49.022;12.148;2023-10-13T13:22:05;1.43;;;1.33;;
791;SDS011;379;49.022;12.148;2023-10-13T13:24:36;2.93;;;2.00;;
791;SDS011;379;49.022;12.148;2023-10-13T13:27:09;6.87;;;2.17;;
791;SDS011;379;49.022;12.148;2023-10-13T13:29:39;1.87;;;1.60;;
791;SDS011;379;49.022;12.148;2023-10-13T13:32:06;2.97;;;2.30;;
791;SDS011;379;49.022;12.148;2023-10-13T13:34:42;2.10;;;1.80;;
791;SDS011;379;49.022;12.148;2023-10-13T13:37:09;3.23;;;1.50;;
791;SDS011;379;49.022;12.148;2023-10-13T13:39:37;4.63;;;2.00;;
791;SDS011;379;49.022;12.148;2023-10-13T13:42:09;2.97;;;2.00;;
791;SDS011;379;49.022;12.148;2023-10-13T13:44:42;2.20;;;1.30;;
791;SDS011;379;49.022;12.148;2023-10-13T13:47:11;3.30;;;2.10;;
791;SDS011;379;49.022;12.148;2023-10-13T13:49:38;3.53;;;1.57;;
791;SDS011;379;49.022;12.148;2023-10-13T13:52:06;9.07;;;2.50;;
791;SDS011;379;49.022;12.148;2023-10-13T13:54:33;5.00;;;1.47;;
791;SDS011;379;49.022;12.148;2023-10-13T13:56:59;9.87;;;2.63;;
791;SDS011;379;49.022;12.148;2023-10-13T13:59:28;3.40;;;1.57;;
791;SDS011;379;49.022;12.148;2023-10-13T14:01:59;2.90;;;1.30;;
791;SDS011;379;49.022;12.148;2023-10-13T14:04:31;5.03;;;1.47;;
791;SDS011;379;49.022;12.148;2023-10-13T14:06:58;1.77;;;1.33;;
791;SDS011;379;49.022;12.148;2023-10-13T14:09:31;3.50;;;1.20;;
791;SDS011;379;49.022;12.148;2023-10-13T14:12:05;1.93;;;1.43;;
791;SDS011;379;49.022;12.148;2023-10-13T14:14:51;1.87;;;1.50;;
791;SDS011;379;49.022;12.148;2023-10-13T14:17:21;3.37;;;1.20;;
791;SDS011;379;49.022;12.148;2023-10-13T14:19:54;2.43;;;1.73;;
791;SDS011;379;49.022;12.148;2023-10-13T14:22:21;2.10;;;1.43;;
791;SDS011;379;49.022;12.148;2023-10-13T14:24:50;1.20;;;1.00;;
791;SDS011;379;49.022;12.148;2023-10-13T14:27:19;1.30;;;1.20;;
791;SDS011;379;49.022;12.148;2023-10-13T14:29:48;5.03;;;1.13;;
791;SDS011;379;49.022;12.148;2023-10-13T14:32:19;2.87;;;1.37;;
791;SDS011;379;49.022;12.148;2023-10-13T14:34:49;1.83;;;1.10;;
791;SDS011;379;49.022;12.148;2023-10-13T14:37:21;3.57;;;1.67;;
791;SDS011;379;49.022;12.148;2023-10-13T14:39:53;1.77;;;1.10;;
791;SDS011;379;49.022;12.148;2023-10-13T14:42:22;3.00;;;2.40;;
791;SDS011;379;49.022;12.148;2023-10-13T14:44:49;5.47;;;2.20;;
791;SDS011;379;49.022;12.148;2023-10-13T14:47:21;3.43;;;1.50;;
791;SDS011;379;49.022;12.148;2023-10-13T14:49:50;4.50;;;1.40;;
791;SDS011;379;49.022;12.148;2023-10-13T14:52:19;2.30;;;1.33;;
791;SDS011;379;49.022;12.148;2023-10-13T14:54:46;9.60;;;2.10;;
791;SDS011;379;49.022;12.148;2023-10-13T14:57:13;3.60;;;2.30;;
791;SDS011;379;49.022;12.148;2023-10-13T14:59:40;2.10;;;1.90;;
791;SDS011;379;49.022;12.148;2023-10-13T15:02:07;5.30;;;2.10;;
791;SDS011;379;49.022;12.148;2023-10-13T15:04:35;4.93;;;1.83;;
791;SDS011;379;49.022;12.148;2023-10-13T15:07:01;2.07;;;1.37;;
791;SDS011;379;49.022;12.148;2023-10-13T15:09:28;2.43;;;2.13;;
791;SDS011;379;49.022;12.148;2023-10-13T15:11:55;3.63;;;1.70;;
791;SDS011;379;49.022;12.148;2023-10-13T15:14:22;1.80;;;1.50;;
791;SDS011;379;49.022;12.148;2023-10-13T15:16:49;2.50;;;1.67;;
791;SDS011;379;49.022;12.148;2023-10-13T15:19:17;2.13;;;1.93;;
791;SDS011;379;49.022;12.148;2023-10-13T15:21:45;2.63;;;2.10;;
791;SDS011;379;49.022;12.148;2023-10-13T15:24:15;5.30;;;2.33;;
791;SDS011;379;49.022;12.148;2023-10-13T15:26:42;2.70;;;1.67;;
791;SDS011;379;49.022;12.148;2023-10-13T15:29:13;6.07;;;2.10;;
791;SDS011;379;49.022;12.148;2023-10-13T15:31:42;2.10;;;1.43;;
791;SDS011;379;49.022;12.148;2023-10-13T15:34:19;2.07;;;1.77;;
791;SDS011;379;49.022;12.148;2023-10-13T15:36:49;7.70;;;1.63;;
791;SDS011;379;49.022;12.148;2023-10-13T15:39:19;2.40;;;1.70;;
791;SDS011;379;49.022;12.148;2023-10-13T15:41:49;5.30;;;2.20;;
791;SDS011;379;49.022;12.148;2023-10-13T15:44:18;3.40;;;2.77;;
791;SDS011;379;49.022;12.148;2023-10-13T15:46:50;3.37;;;2.20;;
791;SDS011;379;49.022;12.148;2023-10-13T15:49:19;3.50;;;1.57;;
791;SDS011;379;49.022;12.148;2023-10-13T15:51:45;2.10;;;1.73;;
791;SDS011;379;49.022;12.148;2023-10-13T15:54:14;4.27;;;1.40;;
791;SDS011;379;49.022;12.148;2023-10-13T15:56:43;11.03;;;2.20;;
791;SDS011;379;49.022;12.148;2023-10-13T15:59:10;21.23;;;3.20;;
791;SDS011;379;49.022;12.148;2023-10-13T16:01:38;9.97;;;3.20;;
791;SDS011;379;49.022;12.148;2023-10-13T16:04:05;3.13;;;1.50;;
791;SDS011;379;49.022;12.148;2023-10-13T16:06:37;11.13;;;1.87;;
791;SDS011;379;49.022;12.148;2023-10-13T16:09:04;2.43;;;1.77;;